sensor_id;sensor_type;location;lat;lon;timestamp;P1;durP1;ratioP1;P2;durP2;ratioP2
13469;SDS011;6807;48.682;9.032;2023-02-01T00:02:05;7.75;;;5.00;;
13469;SDS011;6807;48.682;9.032;2023-02-01T00:04:33;6.43;;;5.07;;
13469;SDS011;6807;48.682;9.032;2023-02-01T00:07:02;6.47;;;5.25;;
13469;SDS011;6807;48.682;9.032;2023-02-01T00:09:29;6.50;;;5.10;;
13469;SDS011;6807;48.682;9.032;2023-02-01T00:11:56;6.28;;;5.35;;
13469;SDS011;6807;48.682;9.032;2023-02-01T00:14:24;6.47;;;4.43;;
13469;SDS011;6807;48.682;9.032;2023-02-01T00:16:51;4.97;;;4.20;;
13469;SDS011;6807;48.682;9.032;2023-02-01T00:19:18;6.28;;;4.97;;
13469;SDS011;6807;48.682;9.032;2023-02-01T00:21:45;6.55;;;4.28;;
13469;SDS011;6807;48.682;9.032;2023-02-01T00:24:13;6.90;;;4.90;;
13469;SDS011;6807;48.682;9.032;2023-02-01T00:26:40;5.13;;;4.63;;
13469;SDS011;6807;48.682;9.032;2023-02-01T00:29:09;6.45;;;4.93;;
13469;SDS011;6807;48.682;9.032;2023-02-01T00:31:38;7.10;;;5.18;;
13469;SDS011;6807;48.682;9.032;2023-02-01T00:34:05;6.07;;;4.47;;
13469;SDS011;6807;48.682;9.032;2023-02-01T00:36:33;4.65;;;4.13;;
13469;SDS011;6807;48.682;9.032;2023-02-01T00:39:00;6.05;;;5.05;;
13469;SDS011;6807;48.682;9.032;2023-02-01T00:41:34;4.47;;;4.07;;
13469;SDS011;6807;48.682;9.032;2023-02-01T00:44:06;5.95;;;4.28;;
13469;SDS011;6807;48.682;9.032;2023-02-01T00:46:33;6.68;;;4.60;;
13469;SDS011;6807;48.682;9.032;2023-02-01T00:49:02;6.47;;;4.05;;
13469;SDS011;6807;48.682;9.032;2023-02-01T00:51:29;6.10;;;4.15;;
13469;SDS011;6807;48.682;9.032;2023-02-01T00:53:59;4.90;;;3.80;;
13469;SDS011;6807;48.682;9.032;2023-02-01T00:56:25;6.85;;;4.53;;
13469;SDS011;6807;48.682;9.032;2023-02-01T00:58:54;7.03;;;4.53;;
13469;SDS011;6807;48.682;9.032;2023-02-01T01:01:22;5.68;;;4.22;;
13469;SDS011;6807;48.682;9.032;2023-02-01T01:03:50;3.90;;;3.15;;
13469;SDS011;6807;48.682;9.032;2023-02-01T01:06:21;4.40;;;4.00;;
13469;SDS011;6807;48.682;9.032;2023-02-01T01:08:50;3.78;;;3.38;;
13469;SDS011;6807;48.682;9.032;2023-02-01T01:11:19;4.10;;;3.75;;
13469;SDS011;6807;48.682;9.032;2023-02-01T01:13:48;4.70;;;3.28;;
13469;SDS011;6807;48.682;9.032;2023-02-01T01:16:18;3.45;;;3.15;;
13469;SDS011;6807;48.682;9.032;2023-02-01T01:18:48;4.28;;;3.72;;
13469;SDS011;6807;48.682;9.032;2023-02-01T01:21:15;5.68;;;4.38;;
13469;SDS011;6807;48.682;9.032;2023-02-01T01:23:44;5.40;;;4.03;;
13469;SDS011;6807;48.682;9.032;2023-02-01T01:26:14;3.20;;;2.92;;
13469;SDS011;6807;48.682;9.032;2023-02-01T01:28:44;4.53;;;4.05;;
13469;SDS011;6807;48.682;9.032;2023-02-01T01:31:12;4.65;;;4.13;;
13469;SDS011;6807;48.682;9.032;2023-02-01T01:33:42;4.30;;;3.90;;
13469;SDS011;6807;48.682;9.032;2023-02-01T01:36:09;4.88;;;3.95;;
13469;SDS011;6807;48.682;9.032;2023-02-01T01:38:37;4.97;;;3.47;;
13469;SDS011;6807;48.682;9.032;2023-02-01T01:41:05;5.00;;;4.10;;
13469;SDS011;6807;48.682;9.032;2023-02-01T01:46:28;5.18;;;4.40;;
13469;SDS011;6807;48.682;9.032;2023-02-01T01:49:03;7.63;;;4.57;;
13469;SDS011;6807;48.682;9.032;2023-02-01T01:51:34;4.95;;;4.35;;
13469;SDS011;6807;48.682;9.032;2023-02-01T01:54:05;5.00;;;4.30;;
13469;SDS011;6807;48.682;9.032;2023-02-01T01:56:38;6.57;;;4.43;;
13469;SDS011;6807;48.682;9.032;2023-02-01T01:59:06;6.65;;;4.63;;
13469;SDS011;6807;48.682;9.032;2023-02-01T02:01:34;5.18;;;3.67;;
13469;SDS011;6807;48.682;9.032;2023-02-01T02:04:03;4.82;;;3.45;;
13469;SDS011;6807;48.682;9.032;2023-02-01T02:06:35;7.22;;;4.55;;
13469;SDS011;6807;48.682;9.032;2023-02-01T02:09:06;4.13;;;3.28;;
13469;SDS011;6807;48.682;9.032;2023-02-01T02:11:34;6.05;;;4.57;;
13469;SDS011;6807;48.682;9.032;2023-02-01T02:14:00;5.90;;;4.25;;
13469;SDS011;6807;48.682;9.032;2023-02-01T02:16:32;4.93;;;4.10;;
13469;SDS011;6807;48.682;9.032;2023-02-01T02:22:20;5.18;;;4.65;;
13469;SDS011;6807;48.682;9.032;2023-02-01T02:25:24;4.85;;;3.70;;
13469;SDS011;6807;48.682;9.032;2023-02-01T02:28:16;4.32;;;3.80;;
13469;SDS011;6807;48.682;9.032;2023-02-01T02:31:07;4.68;;;4.18;;
13469;SDS011;6807;48.682;9.032;2023-02-01T02:33:59;6.10;;;3.90;;
13469;SDS011;6807;48.682;9.032;2023-02-01T02:36:35;4.40;;;4.00;;
13469;SDS011;6807;48.682;9.032;2023-02-01T02:39:11;5.68;;;4.60;;
13469;SDS011;6807;48.682;9.032;2023-02-01T02:41:47;4.72;;;3.63;;
13469;SDS011;6807;48.682;9.032;2023-02-01T02:44:39;6.40;;;3.83;;
13469;SDS011;6807;48.682;9.032;2023-02-01T02:47:32;6.05;;;4.43;;
13469;SDS011;6807;48.682;9.032;2023-02-01T02:50:11;5.18;;;3.40;;
13469;SDS011;6807;48.682;9.032;2023-02-01T02:53:02;5.82;;;4.32;;
13469;SDS011;6807;48.682;9.032;2023-02-01T02:55:50;7.72;;;4.93;;
13469;SDS011;6807;48.682;9.032;2023-02-01T02:58:32;4.10;;;3.70;;
13469;SDS011;6807;48.682;9.032;2023-02-01T03:01:16;4.68;;;4.15;;
13469;SDS011;6807;48.682;9.032;2023-02-01T03:04:01;5.70;;;4.30;;
13469;SDS011;6807;48.682;9.032;2023-02-01T03:06:36;4.88;;;4.10;;
13469;SDS011;6807;48.682;9.032;2023-02-01T03:09:06;4.95;;;4.03;;
13469;SDS011;6807;48.682;9.032;2023-02-01T03:11:39;5.75;;;4.00;;
13469;SDS011;6807;48.682;9.032;2023-02-01T03:14:28;5.22;;;4.45;;
13469;SDS011;6807;48.682;9.032;2023-02-01T03:16:57;7.05;;;4.15;;
13469;SDS011;6807;48.682;9.032;2023-02-01T03:19:31;4.95;;;4.40;;
13469;SDS011;6807;48.682;9.032;2023-02-01T03:22:03;5.70;;;4.68;;
13469;SDS011;6807;48.682;9.032;2023-02-01T03:24:34;4.65;;;4.00;;
13469;SDS011;6807;48.682;9.032;2023-02-01T03:27:05;5.20;;;4.35;;
13469;SDS011;6807;48.682;9.032;2023-02-01T03:29:39;5.95;;;4.50;;
13469;SDS011;6807;48.682;9.032;2023-02-01T03:32:11;5.00;;;4.20;;
13469;SDS011;6807;48.682;9.032;2023-02-01T03:34:39;4.65;;;4.25;;
13469;SDS011;6807;48.682;9.032;2023-02-01T03:37:09;6.95;;;4.32;;
13469;SDS011;6807;48.682;9.032;2023-02-01T03:39:41;5.97;;;4.25;;
13469;SDS011;6807;48.682;9.032;2023-02-01T05:25:43;3.10;;;2.80;;
13469;SDS011;6807;48.682;9.032;2023-02-01T05:28:10;3.67;;;2.90;;
13469;SDS011;6807;48.682;9.032;2023-02-01T05:30:37;2.60;;;2.40;;
13469;SDS011;6807;48.682;9.032;2023-02-01T05:33:04;2.17;;;1.98;;
13469;SDS011;6807;48.682;9.032;2023-02-01T05:35:31;3.00;;;2.53;;
13469;SDS011;6807;48.682;9.032;2023-02-01T05:37:58;2.92;;;2.63;;
13469;SDS011;6807;48.682;9.032;2023-02-01T05:40:25;3.35;;;2.92;;
13469;SDS011;6807;48.682;9.032;2023-02-01T05:42:53;4.22;;;3.67;;
13469;SDS011;6807;48.682;9.032;2023-02-01T05:48:29;3.50;;;2.95;;
13469;SDS011;6807;48.682;9.032;2023-02-01T05:50:56;2.92;;;2.70;;
13469;SDS011;6807;48.682;9.032;2023-02-01T05:53:23;3.08;;;2.80;;
13469;SDS011;6807;48.682;9.032;2023-02-01T05:55:51;3.20;;;2.95;;
13469;SDS011;6807;48.682;9.032;2023-02-01T06:13:38;2.60;;;2.40;;
13469;SDS011;6807;48.682;9.032;2023-02-01T06:16:11;3.20;;;2.90;;
13469;SDS011;6807;48.682;9.032;2023-02-01T06:18:40;3.50;;;2.90;;
13469;SDS011;6807;48.682;9.032;2023-02-01T06:21:07;3.40;;;3.08;;
13469;SDS011;6807;48.682;9.032;2023-02-01T06:23:34;2.72;;;2.53;;
13469;SDS011;6807;48.682;9.032;2023-02-01T06:26:02;3.30;;;3.00;;
13469;SDS011;6807;48.682;9.032;2023-02-01T06:28:30;3.30;;;2.83;;
13469;SDS011;6807;48.682;9.032;2023-02-01T06:31:03;3.53;;;2.70;;
13469;SDS011;6807;48.682;9.032;2023-02-01T06:33:39;3.05;;;2.72;;
13469;SDS011;6807;48.682;9.032;2023-02-01T06:36:07;2.75;;;2.55;;
13469;SDS011;6807;48.682;9.032;2023-02-01T06:38:43;4.03;;;3.22;;
13469;SDS011;6807;48.682;9.032;2023-02-01T06:41:10;2.65;;;2.45;;
13469;SDS011;6807;48.682;9.032;2023-02-01T06:43:37;2.78;;;2.58;;
13469;SDS011;6807;48.682;9.032;2023-02-01T06:46:06;2.92;;;2.67;;
13469;SDS011;6807;48.682;9.032;2023-02-01T06:48:35;2.75;;;2.53;;
13469;SDS011;6807;48.682;9.032;2023-02-01T06:51:02;4.80;;;2.65;;
13469;SDS011;6807;48.682;9.032;2023-02-01T06:53:34;4.22;;;2.92;;
13469;SDS011;6807;48.682;9.032;2023-02-01T06:56:02;4.07;;;2.53;;
13469;SDS011;6807;48.682;9.032;2023-02-01T06:58:29;4.55;;;3.00;;
13469;SDS011;6807;48.682;9.032;2023-02-01T07:00:57;3.03;;;2.60;;
13469;SDS011;6807;48.682;9.032;2023-02-01T07:03:26;3.10;;;2.65;;
13469;SDS011;6807;48.682;9.032;2023-02-01T07:05:54;3.40;;;3.10;;
13469;SDS011;6807;48.682;9.032;2023-02-01T07:08:23;3.00;;;2.70;;
13469;SDS011;6807;48.682;9.032;2023-02-01T07:10:50;3.33;;;3.00;;
13469;SDS011;6807;48.682;9.032;2023-02-01T07:13:19;3.83;;;3.30;;
13469;SDS011;6807;48.682;9.032;2023-02-01T07:15:46;4.28;;;3.00;;
13469;SDS011;6807;48.682;9.032;2023-02-01T07:18:13;2.78;;;2.58;;
13469;SDS011;6807;48.682;9.032;2023-02-01T07:20:41;3.10;;;2.70;;
13469;SDS011;6807;48.682;9.032;2023-02-01T07:23:09;3.17;;;2.70;;
13469;SDS011;6807;48.682;9.032;2023-02-01T07:28:54;4.95;;;3.08;;
13469;SDS011;6807;48.682;9.032;2023-02-01T07:31:22;4.15;;;2.88;;
13469;SDS011;6807;48.682;9.032;2023-02-01T07:33:51;3.20;;;2.90;;
13469;SDS011;6807;48.682;9.032;2023-02-01T07:36:19;4.57;;;3.15;;
13469;SDS011;6807;48.682;9.032;2023-02-01T07:38:46;3.30;;;2.80;;
13469;SDS011;6807;48.682;9.032;2023-02-01T07:41:13;3.55;;;3.15;;
13469;SDS011;6807;48.682;9.032;2023-02-01T07:43:40;4.00;;;3.00;;
13469;SDS011;6807;48.682;9.032;2023-02-01T07:46:07;3.17;;;2.88;;
13469;SDS011;6807;48.682;9.032;2023-02-01T07:48:35;3.22;;;2.80;;
13469;SDS011;6807;48.682;9.032;2023-02-01T07:51:03;3.45;;;2.80;;
13469;SDS011;6807;48.682;9.032;2023-02-01T07:53:33;3.20;;;2.67;;
13469;SDS011;6807;48.682;9.032;2023-02-01T07:56:00;3.78;;;3.13;;
13469;SDS011;6807;48.682;9.032;2023-02-01T07:58:28;8.00;;;3.35;;
13469;SDS011;6807;48.682;9.032;2023-02-01T08:00:56;3.25;;;2.97;;
13469;SDS011;6807;48.682;9.032;2023-02-01T08:03:40;3.17;;;2.88;;
13469;SDS011;6807;48.682;9.032;2023-02-01T08:06:07;2.58;;;2.38;;
13469;SDS011;6807;48.682;9.032;2023-02-01T08:08:35;3.22;;;2.92;;
13469;SDS011;6807;48.682;9.032;2023-02-01T08:11:03;2.70;;;2.50;;
13469;SDS011;6807;48.682;9.032;2023-02-01T08:13:32;4.63;;;2.55;;
13469;SDS011;6807;48.682;9.032;2023-02-01T08:15:59;4.30;;;3.00;;
13469;SDS011;6807;48.682;9.032;2023-02-01T08:18:27;4.53;;;2.55;;
13469;SDS011;6807;48.682;9.032;2023-02-01T08:20:54;6.35;;;3.63;;
13469;SDS011;6807;48.682;9.032;2023-02-01T08:23:22;3.17;;;2.85;;
13469;SDS011;6807;48.682;9.032;2023-02-01T08:25:51;2.88;;;2.60;;
13469;SDS011;6807;48.682;9.032;2023-02-01T08:28:17;3.22;;;2.58;;
13469;SDS011;6807;48.682;9.032;2023-02-01T08:30:45;3.75;;;2.80;;
13469;SDS011;6807;48.682;9.032;2023-02-01T08:33:12;2.80;;;2.60;;
13469;SDS011;6807;48.682;9.032;2023-02-01T08:35:39;4.72;;;3.00;;
13469;SDS011;6807;48.682;9.032;2023-02-01T08:38:06;3.55;;;3.03;;
13469;SDS011;6807;48.682;9.032;2023-02-01T08:40:33;4.75;;;3.05;;
13469;SDS011;6807;48.682;9.032;2023-02-01T08:43:01;4.15;;;2.92;;
13469;SDS011;6807;48.682;9.032;2023-02-01T08:45:28;4.60;;;2.85;;
13469;SDS011;6807;48.682;9.032;2023-02-01T08:47:56;3.63;;;3.30;;
13469;SDS011;6807;48.682;9.032;2023-02-01T08:50:23;4.28;;;2.53;;
13469;SDS011;6807;48.682;9.032;2023-02-01T08:52:51;3.70;;;2.97;;
13469;SDS011;6807;48.682;9.032;2023-02-01T08:55:19;3.50;;;2.80;;
13469;SDS011;6807;48.682;9.032;2023-02-01T08:57:46;3.92;;;2.90;;
13469;SDS011;6807;48.682;9.032;2023-02-01T09:00:15;3.58;;;2.70;;
13469;SDS011;6807;48.682;9.032;2023-02-01T09:02:43;4.60;;;2.47;;
13469;SDS011;6807;48.682;9.032;2023-02-01T09:05:11;5.18;;;3.03;;
13469;SDS011;6807;48.682;9.032;2023-02-01T09:07:39;3.05;;;2.65;;
13469;SDS011;6807;48.682;9.032;2023-02-01T09:10:06;3.92;;;2.75;;
13469;SDS011;6807;48.682;9.032;2023-02-01T09:12:34;2.80;;;2.47;;
13469;SDS011;6807;48.682;9.032;2023-02-01T09:15:03;5.18;;;2.83;;
13469;SDS011;6807;48.682;9.032;2023-02-01T09:17:33;7.55;;;3.00;;
13469;SDS011;6807;48.682;9.032;2023-02-01T11:51:17;10.25;;;2.80;;
13469;SDS011;6807;48.682;9.032;2023-02-01T11:54:04;8.32;;;2.80;;
13469;SDS011;6807;48.682;9.032;2023-02-01T11:56:45;7.40;;;2.45;;
13469;SDS011;6807;48.682;9.032;2023-02-01T11:59:29;4.80;;;2.50;;
13469;SDS011;6807;48.682;9.032;2023-02-01T12:02:18;4.13;;;2.45;;
13469;SDS011;6807;48.682;9.032;2023-02-01T12:05:18;5.13;;;2.53;;
13469;SDS011;6807;48.682;9.032;2023-02-01T12:08:00;6.70;;;2.40;;
13469;SDS011;6807;48.682;9.032;2023-02-01T12:10:57;11.77;;;2.85;;
13469;SDS011;6807;48.682;9.032;2023-02-01T12:13:41;8.45;;;3.42;;
13469;SDS011;6807;48.682;9.032;2023-02-01T12:16:23;3.17;;;1.75;;
13469;SDS011;6807;48.682;9.032;2023-02-01T12:22:12;4.70;;;2.50;;
13469;SDS011;6807;48.682;9.032;2023-02-01T12:24:54;8.77;;;2.83;;
13469;SDS011;6807;48.682;9.032;2023-02-01T12:27:47;7.05;;;2.85;;
13469;SDS011;6807;48.682;9.032;2023-02-01T12:30:40;6.88;;;2.58;;
13469;SDS011;6807;48.682;9.032;2023-02-01T12:33:22;7.30;;;2.20;;
13469;SDS011;6807;48.682;9.032;2023-02-01T12:36:09;5.78;;;2.13;;
13469;SDS011;6807;48.682;9.032;2023-02-01T12:38:44;7.95;;;2.70;;
13469;SDS011;6807;48.682;9.032;2023-02-01T12:41:25;5.60;;;2.63;;
13469;SDS011;6807;48.682;9.032;2023-02-01T12:44:17;6.13;;;3.17;;
13469;SDS011;6807;48.682;9.032;2023-02-01T12:46:53;8.70;;;2.80;;
13469;SDS011;6807;48.682;9.032;2023-02-01T12:49:31;10.68;;;2.85;;
13469;SDS011;6807;48.682;9.032;2023-02-01T13:00:23;8.27;;;2.70;;
13469;SDS011;6807;48.682;9.032;2023-02-01T13:02:59;9.23;;;3.25;;
13469;SDS011;6807;48.682;9.032;2023-02-01T13:05:47;8.95;;;3.13;;
13469;SDS011;6807;48.682;9.032;2023-02-01T13:08:21;4.35;;;2.60;;
13469;SDS011;6807;48.682;9.032;2023-02-01T13:10:51;6.03;;;2.10;;
13469;SDS011;6807;48.682;9.032;2023-02-01T13:13:26;6.50;;;3.10;;
13469;SDS011;6807;48.682;9.032;2023-02-01T13:16:01;7.43;;;2.60;;
13469;SDS011;6807;48.682;9.032;2023-02-01T13:18:39;11.45;;;3.13;;
13469;SDS011;6807;48.682;9.032;2023-02-01T13:21:10;7.32;;;2.65;;
13469;SDS011;6807;48.682;9.032;2023-02-01T13:23:41;8.57;;;2.65;;
13469;SDS011;6807;48.682;9.032;2023-02-01T13:26:09;5.95;;;2.50;;
13469;SDS011;6807;48.682;9.032;2023-02-01T13:28:40;11.15;;;2.53;;
13469;SDS011;6807;48.682;9.032;2023-02-01T13:31:35;3.67;;;2.33;;
13469;SDS011;6807;48.682;9.032;2023-02-01T13:34:34;6.68;;;2.90;;
13469;SDS011;6807;48.682;9.032;2023-02-01T13:37:31;4.95;;;2.67;;
13469;SDS011;6807;48.682;9.032;2023-02-01T13:40:16;5.00;;;2.50;;
13469;SDS011;6807;48.682;9.032;2023-02-01T13:42:52;6.30;;;2.90;;
13469;SDS011;6807;48.682;9.032;2023-02-01T13:45:23;3.60;;;2.45;;
13469;SDS011;6807;48.682;9.032;2023-02-01T13:47:54;8.00;;;2.85;;
13469;SDS011;6807;48.682;9.032;2023-02-01T13:50:24;5.57;;;2.58;;
13469;SDS011;6807;48.682;9.032;2023-02-01T13:52:54;7.22;;;2.67;;
13469;SDS011;6807;48.682;9.032;2023-02-01T13:55:31;11.55;;;2.65;;
13469;SDS011;6807;48.682;9.032;2023-02-01T13:58:01;7.55;;;2.95;;
13469;SDS011;6807;48.682;9.032;2023-02-01T14:00:33;4.57;;;2.35;;
13469;SDS011;6807;48.682;9.032;2023-02-01T14:03:11;7.05;;;2.45;;
13469;SDS011;6807;48.682;9.032;2023-02-01T14:05:59;6.78;;;2.70;;
13469;SDS011;6807;48.682;9.032;2023-02-01T14:08:41;7.60;;;3.28;;
13469;SDS011;6807;48.682;9.032;2023-02-01T14:23:11;5.45;;;2.10;;
13469;SDS011;6807;48.682;9.032;2023-02-01T14:25:41;6.15;;;2.80;;
13469;SDS011;6807;48.682;9.032;2023-02-01T14:28:12;4.03;;;2.50;;
13469;SDS011;6807;48.682;9.032;2023-02-01T14:30:56;10.63;;;3.67;;
13469;SDS011;6807;48.682;9.032;2023-02-01T14:33:26;10.48;;;4.57;;
13469;SDS011;6807;48.682;9.032;2023-02-01T14:36:00;14.38;;;5.97;;
13469;SDS011;6807;48.682;9.032;2023-02-01T14:38:31;14.35;;;5.22;;
13469;SDS011;6807;48.682;9.032;2023-02-01T14:41:24;9.20;;;3.83;;
13469;SDS011;6807;48.682;9.032;2023-02-01T14:44:14;24.55;;;6.13;;
13469;SDS011;6807;48.682;9.032;2023-02-01T14:53:04;8.05;;;3.00;;
13469;SDS011;6807;48.682;9.032;2023-02-01T14:55:51;8.90;;;3.35;;
13469;SDS011;6807;48.682;9.032;2023-02-01T14:58:27;9.30;;;3.35;;
13469;SDS011;6807;48.682;9.032;2023-02-01T15:00:59;8.60;;;3.63;;
13469;SDS011;6807;48.682;9.032;2023-02-01T15:03:46;9.43;;;5.43;;
13469;SDS011;6807;48.682;9.032;2023-02-01T15:06:29;7.95;;;3.35;;
13469;SDS011;6807;48.682;9.032;2023-02-01T15:11:54;7.28;;;3.90;;
13469;SDS011;6807;48.682;9.032;2023-02-01T15:14:24;16.38;;;7.10;;
13469;SDS011;6807;48.682;9.032;2023-02-01T15:17:17;14.98;;;6.75;;
13469;SDS011;6807;48.682;9.032;2023-02-01T15:19:52;11.93;;;3.45;;
13469;SDS011;6807;48.682;9.032;2023-02-01T15:25:22;6.50;;;2.13;;
13469;SDS011;6807;48.682;9.032;2023-02-01T15:28:08;7.30;;;2.88;;
13469;SDS011;6807;48.682;9.032;2023-02-01T15:30:51;2.15;;;2.00;;
13469;SDS011;6807;48.682;9.032;2023-02-01T15:33:29;7.22;;;2.55;;
13469;SDS011;6807;48.682;9.032;2023-02-01T15:36:08;8.50;;;2.72;;
13469;SDS011;6807;48.682;9.032;2023-02-01T15:38:40;9.02;;;2.90;;
13469;SDS011;6807;48.682;9.032;2023-02-01T15:41:32;7.15;;;2.83;;
13469;SDS011;6807;48.682;9.032;2023-02-01T15:44:15;6.47;;;2.78;;
13469;SDS011;6807;48.682;9.032;2023-02-01T15:47:18;6.93;;;2.40;;
13469;SDS011;6807;48.682;9.032;2023-02-01T15:50:02;7.90;;;2.85;;
13469;SDS011;6807;48.682;9.032;2023-02-01T15:52:59;4.30;;;2.08;;
13469;SDS011;6807;48.682;9.032;2023-02-01T15:55:33;2.92;;;2.55;;
13469;SDS011;6807;48.682;9.032;2023-02-01T15:58:16;9.13;;;2.75;;
13469;SDS011;6807;48.682;9.032;2023-02-01T16:00:46;5.43;;;2.95;;
13469;SDS011;6807;48.682;9.032;2023-02-01T16:06:05;7.40;;;2.53;;
13469;SDS011;6807;48.682;9.032;2023-02-01T16:08:33;6.78;;;2.88;;
13469;SDS011;6807;48.682;9.032;2023-02-01T16:29:52;9.80;;;2.97;;
13469;SDS011;6807;48.682;9.032;2023-02-01T16:32:21;11.15;;;4.13;;
13469;SDS011;6807;48.682;9.032;2023-02-01T16:34:49;7.13;;;2.80;;
13469;SDS011;6807;48.682;9.032;2023-02-01T16:37:19;11.00;;;4.65;;
13469;SDS011;6807;48.682;9.032;2023-02-01T16:39:58;9.75;;;2.90;;
13469;SDS011;6807;48.682;9.032;2023-02-01T16:42:42;11.68;;;4.25;;
13469;SDS011;6807;48.682;9.032;2023-02-01T16:45:12;6.68;;;3.00;;
13469;SDS011;6807;48.682;9.032;2023-02-01T16:47:54;5.35;;;2.45;;
13469;SDS011;6807;48.682;9.032;2023-02-01T16:50:33;11.32;;;3.80;;
13469;SDS011;6807;48.682;9.032;2023-02-01T16:53:28;4.03;;;3.05;;
13469;SDS011;6807;48.682;9.032;2023-02-01T16:56:07;8.57;;;3.95;;
13469;SDS011;6807;48.682;9.032;2023-02-01T17:01:57;7.38;;;3.22;;
13469;SDS011;6807;48.682;9.032;2023-02-01T17:04:24;6.40;;;2.83;;
13469;SDS011;6807;48.682;9.032;2023-02-01T17:06:51;7.38;;;2.90;;
13469;SDS011;6807;48.682;9.032;2023-02-01T17:09:17;5.03;;;2.75;;
13469;SDS011;6807;48.682;9.032;2023-02-01T17:11:45;6.05;;;2.70;;
13469;SDS011;6807;48.682;9.032;2023-02-01T17:14:14;9.65;;;3.53;;
13469;SDS011;6807;48.682;9.032;2023-02-01T17:16:42;4.55;;;3.20;;
13469;SDS011;6807;48.682;9.032;2023-02-01T17:19:13;5.40;;;2.83;;
13469;SDS011;6807;48.682;9.032;2023-02-01T17:21:43;6.35;;;2.83;;
13469;SDS011;6807;48.682;9.032;2023-02-01T17:24:11;8.10;;;2.92;;
13469;SDS011;6807;48.682;9.032;2023-02-01T17:26:39;8.75;;;2.88;;
13469;SDS011;6807;48.682;9.032;2023-02-01T17:29:06;4.10;;;2.55;;
13469;SDS011;6807;48.682;9.032;2023-02-01T17:31:33;6.82;;;3.03;;
13469;SDS011;6807;48.682;9.032;2023-02-01T17:34:03;10.25;;;3.40;;
13469;SDS011;6807;48.682;9.032;2023-02-01T17:36:32;10.35;;;3.05;;
13469;SDS011;6807;48.682;9.032;2023-02-01T17:39:00;5.80;;;2.78;;
13469;SDS011;6807;48.682;9.032;2023-02-01T17:41:30;9.07;;;2.75;;
13469;SDS011;6807;48.682;9.032;2023-02-01T17:43:58;10.60;;;3.33;;
13469;SDS011;6807;48.682;9.032;2023-02-01T17:46:25;6.95;;;2.95;;
13469;SDS011;6807;48.682;9.032;2023-02-01T17:48:55;4.00;;;2.10;;
13469;SDS011;6807;48.682;9.032;2023-02-01T17:51:24;9.48;;;2.53;;
13469;SDS011;6807;48.682;9.032;2023-02-01T17:53:53;10.13;;;2.67;;
13469;SDS011;6807;48.682;9.032;2023-02-01T17:56:21;6.78;;;2.80;;
13469;SDS011;6807;48.682;9.032;2023-02-01T17:58:50;9.90;;;3.10;;
13469;SDS011;6807;48.682;9.032;2023-02-01T18:01:19;10.07;;;2.78;;
13469;SDS011;6807;48.682;9.032;2023-02-01T18:03:47;8.32;;;2.88;;
13469;SDS011;6807;48.682;9.032;2023-02-01T18:06:15;7.93;;;2.95;;
13469;SDS011;6807;48.682;9.032;2023-02-01T18:08:45;10.07;;;2.90;;
13469;SDS011;6807;48.682;9.032;2023-02-01T18:11:14;8.25;;;4.70;;
13469;SDS011;6807;48.682;9.032;2023-02-01T18:13:42;5.35;;;2.53;;
13469;SDS011;6807;48.682;9.032;2023-02-01T18:16:18;7.00;;;2.40;;
13469;SDS011;6807;48.682;9.032;2023-02-01T18:18:52;6.47;;;2.83;;
13469;SDS011;6807;48.682;9.032;2023-02-01T18:21:21;5.32;;;2.17;;
13469;SDS011;6807;48.682;9.032;2023-02-01T18:23:49;3.88;;;2.50;;
13469;SDS011;6807;48.682;9.032;2023-02-01T18:26:17;8.25;;;3.13;;
13469;SDS011;6807;48.682;9.032;2023-02-01T18:28:44;10.65;;;3.60;;
13469;SDS011;6807;48.682;9.032;2023-02-01T18:31:18;6.13;;;3.00;;
13469;SDS011;6807;48.682;9.032;2023-02-01T18:33:47;7.60;;;2.60;;
13469;SDS011;6807;48.682;9.032;2023-02-01T18:36:14;6.45;;;2.17;;
13469;SDS011;6807;48.682;9.032;2023-02-01T18:38:41;8.15;;;2.55;;
13469;SDS011;6807;48.682;9.032;2023-02-01T18:41:08;7.50;;;3.05;;
13469;SDS011;6807;48.682;9.032;2023-02-01T18:43:42;11.35;;;3.08;;
13469;SDS011;6807;48.682;9.032;2023-02-01T18:46:09;5.07;;;2.47;;
13469;SDS011;6807;48.682;9.032;2023-02-01T18:48:37;5.97;;;2.50;;
13469;SDS011;6807;48.682;9.032;2023-02-01T18:51:04;6.18;;;2.90;;
13469;SDS011;6807;48.682;9.032;2023-02-01T18:53:32;8.70;;;3.22;;
13469;SDS011;6807;48.682;9.032;2023-02-01T18:56:01;7.60;;;2.92;;
13469;SDS011;6807;48.682;9.032;2023-02-01T18:58:28;3.47;;;2.75;;
13469;SDS011;6807;48.682;9.032;2023-02-01T19:00:58;7.97;;;2.67;;
13469;SDS011;6807;48.682;9.032;2023-02-01T19:03:31;4.05;;;2.20;;
13469;SDS011;6807;48.682;9.032;2023-02-01T19:05:58;10.75;;;2.95;;
13469;SDS011;6807;48.682;9.032;2023-02-01T19:08:25;8.45;;;2.63;;
13469;SDS011;6807;48.682;9.032;2023-02-01T19:10:54;7.22;;;2.35;;
13469;SDS011;6807;48.682;9.032;2023-02-01T19:13:26;5.05;;;2.22;;
13469;SDS011;6807;48.682;9.032;2023-02-01T19:15:56;6.38;;;2.45;;
13469;SDS011;6807;48.682;9.032;2023-02-01T19:18:26;7.80;;;4.25;;
13469;SDS011;6807;48.682;9.032;2023-02-01T19:20:56;6.82;;;3.10;;
13469;SDS011;6807;48.682;9.032;2023-02-01T19:23:28;6.85;;;2.90;;
13469;SDS011;6807;48.682;9.032;2023-02-01T19:25:55;7.45;;;2.83;;
13469;SDS011;6807;48.682;9.032;2023-02-01T19:28:22;8.80;;;2.40;;
13469;SDS011;6807;48.682;9.032;2023-02-01T19:30:49;8.02;;;2.67;;
13469;SDS011;6807;48.682;9.032;2023-02-01T19:33:17;5.40;;;2.60;;
13469;SDS011;6807;48.682;9.032;2023-02-01T19:35:46;9.35;;;2.42;;
13469;SDS011;6807;48.682;9.032;2023-02-01T19:38:13;6.78;;;2.63;;
13469;SDS011;6807;48.682;9.032;2023-02-01T19:40:40;3.33;;;1.90;;
13469;SDS011;6807;48.682;9.032;2023-02-01T19:43:07;8.20;;;2.83;;
13469;SDS011;6807;48.682;9.032;2023-02-01T19:45:34;8.50;;;2.70;;
13469;SDS011;6807;48.682;9.032;2023-02-01T19:48:02;7.70;;;2.90;;
13469;SDS011;6807;48.682;9.032;2023-02-01T19:50:33;10.93;;;2.90;;
13469;SDS011;6807;48.682;9.032;2023-02-01T19:52:59;9.68;;;3.20;;
13469;SDS011;6807;48.682;9.032;2023-02-01T19:55:26;6.47;;;3.35;;
13469;SDS011;6807;48.682;9.032;2023-02-01T19:57:55;17.33;;;3.85;;
13469;SDS011;6807;48.682;9.032;2023-02-01T20:00:22;7.43;;;2.83;;
13469;SDS011;6807;48.682;9.032;2023-02-01T20:02:50;10.30;;;3.45;;
13469;SDS011;6807;48.682;9.032;2023-02-01T20:05:18;9.23;;;3.35;;
13469;SDS011;6807;48.682;9.032;2023-02-01T20:07:47;5.75;;;2.17;;
13469;SDS011;6807;48.682;9.032;2023-02-01T20:10:18;5.30;;;2.65;;
13469;SDS011;6807;48.682;9.032;2023-02-01T20:12:47;5.50;;;2.75;;
13469;SDS011;6807;48.682;9.032;2023-02-01T20:15:19;10.05;;;2.30;;
13469;SDS011;6807;48.682;9.032;2023-02-01T20:17:47;10.82;;;3.05;;
13469;SDS011;6807;48.682;9.032;2023-02-01T20:20:14;4.30;;;2.15;;
13469;SDS011;6807;48.682;9.032;2023-02-01T20:22:41;7.55;;;2.75;;
13469;SDS011;6807;48.682;9.032;2023-02-01T20:25:12;8.57;;;2.92;;
13469;SDS011;6807;48.682;9.032;2023-02-01T20:27:39;6.93;;;2.58;;
13469;SDS011;6807;48.682;9.032;2023-02-01T20:30:07;5.72;;;2.90;;
13469;SDS011;6807;48.682;9.032;2023-02-01T20:32:34;6.00;;;2.55;;
13469;SDS011;6807;48.682;9.032;2023-02-01T20:35:01;6.53;;;2.28;;
13469;SDS011;6807;48.682;9.032;2023-02-01T20:37:29;6.95;;;3.00;;
13469;SDS011;6807;48.682;9.032;2023-02-01T20:40:00;8.68;;;2.58;;
13469;SDS011;6807;48.682;9.032;2023-02-01T20:42:29;7.80;;;2.97;;
13469;SDS011;6807;48.682;9.032;2023-02-01T20:44:59;10.60;;;3.15;;
13469;SDS011;6807;48.682;9.032;2023-02-01T20:47:26;11.05;;;2.97;;
13469;SDS011;6807;48.682;9.032;2023-02-01T20:49:53;5.68;;;2.67;;
13469;SDS011;6807;48.682;9.032;2023-02-01T20:52:22;7.10;;;2.95;;
13469;SDS011;6807;48.682;9.032;2023-02-01T20:54:53;7.55;;;3.10;;
13469;SDS011;6807;48.682;9.032;2023-02-01T20:57:20;13.02;;;2.78;;
13469;SDS011;6807;48.682;9.032;2023-02-01T20:59:54;6.47;;;2.88;;
13469;SDS011;6807;48.682;9.032;2023-02-01T21:02:22;6.88;;;2.45;;
13469;SDS011;6807;48.682;9.032;2023-02-01T21:04:49;9.30;;;3.20;;
13469;SDS011;6807;48.682;9.032;2023-02-01T21:07:17;8.18;;;3.33;;
13469;SDS011;6807;48.682;9.032;2023-02-01T21:09:44;7.00;;;3.05;;
13469;SDS011;6807;48.682;9.032;2023-02-01T21:12:10;8.15;;;2.85;;
13469;SDS011;6807;48.682;9.032;2023-02-01T21:14:37;8.15;;;2.85;;